Time,TemperatureF,DewpointF,PressureIn,WindDirection,WindDirectionDegrees,WindSpeedMPH,WindSpeedGustMPH,Humidity,HourlyPrecipIn,Conditions,Clouds,dailyrainin,SoftwareType,DateUTC
2013-08-10 00:02:00,55.9,42.0,29.80,East,88,4.0,-999.0,60,-99.99,,,0.00,weatherlink.com 1.10,2013-08-10 07:02:00,
2013-08-10 00:17:00,55.7,42.0,29.78,ENE,76,0.0,-999.0,60,-99.99,,,0.00,weatherlink.com 1.10,2013-08-10 07:17:00,
2013-08-10 00:32:00,55.6,42.0,29.78,WNW,302,0.0,-999.0,61,-99.99,,,0.00,weatherlink.com 1.10,2013-08-10 07:32:00,
2013-08-10 00:48:00,55.6,42.0,29.78,NW,306,5.0,-999.0,61,-99.99,,,0.00,weatherlink.com 1.10,2013-08-10 07:48:00,
2013-08-10 01:02:00,55.3,42.0,29.79,ENE,58,0.0,-999.0,61,-99.99,,,0.00,weatherlink.com 1.10,2013-08-10 08:02:00,
2013-08-10 01:17:00,54.5,42.0,29.78,NW,313,0.0,-999.0,64,-99.99,,,0.00,weatherlink.com 1.10,2013-08-10 08:17:00,
2013-08-10 01:36:00,54.1,42.0,29.77,ESE,102,1.0,-999.0,65,-99.99,,,0.00,weatherlink.com 1.10,2013-08-10 08:36:00,
2013-08-10 01:47:00,53.8,42.0,29.77,ESE,102,0.0,-999.0,65,-99.99,,,0.00,weatherlink.com 1.10,2013-08-10 08:47:00,
2013-08-10 02:02:00,52.5,42.0,29.79,East,90,0.0,-999.0,68,-99.99,,,0.00,weatherlink.com 1.10,2013-08-10 09:02:00,
2013-08-10 02:32:00,53.4,43.0,29.78,NE,41,0.0,-999.0,67,-99.99,,,0.00,weatherlink.com 1.10,2013-08-10 09:32:00,
2013-08-10 02:47:00,53.2,43.0,29.77,ENE,69,0.0,-999.0,68,-99.99,,,0.00,weatherlink.com 1.10,2013-08-10 09:47:00,
2013-08-10 03:03:00,53.2,42.0,29.77,North,0,0.0,-999.0,67,-99.99,,,0.00,weatherlink.com 1.10,2013-08-10 10:03:00,
2013-08-10 03:20:00,52.6,41.0,29.77,NNE,18,0.0,-999.0,65,-99.99,,,0.00,weatherlink.com 1.10,2013-08-10 10:20:00,
2013-08-10 03:31:00,51.7,41.0,29.77,NE,45,0.0,-999.0,66,-99.99,,,0.00,weatherlink.com 1.10,2013-08-10 10:31:00,
2013-08-10 03:46:00,50.8,42.0,29.78,North,357,0.0,-999.0,71,-99.99,,,0.00,weatherlink.com 1.10,2013-08-10 10:46:00,
2013-08-10 04:01:00,50.7,42.0,29.78,South,182,0.0,-999.0,72,-99.99,,,0.00,weatherlink.com 1.10,2013-08-10 11:01:00,
2013-08-10 04:16:00,50.3,42.0,29.78,SSE,164,0.0,-999.0,74,-99.99,,,0.00,weatherlink.com 1.10,2013-08-10 11:16:00,
2013-08-10 04:31:00,49.4,42.0,29.80,South,178,1.0,-999.0,76,-99.99,,,0.00,weatherlink.com 1.10,2013-08-10 11:31:00,
2013-08-10 04:46:00,49.2,43.0,29.80,SSE,165,2.0,-999.0,78,-99.99,,,0.00,weatherlink.com 1.10,2013-08-10 11:46:00,
2013-08-10 05:01:00,50.0,43.0,29.80,SSW,199,0.0,-999.0,78,-99.99,,,0.00,weatherlink.com 1.10,2013-08-10 12:01:00,
2013-08-10 05:20:00,49.8,44.0,29.80,ESE,106,2.0,-999.0,79,-99.99,,,0.00,weatherlink.com 1.10,2013-08-10 12:20:00,
2013-08-10 05:36:00,49.8,44.0,29.80,South,178,0.0,-999.0,80,-99.99,,,0.00,weatherlink.com 1.10,2013-08-10 12:36:00,
2013-08-10 05:47:00,50.3,43.0,29.81,South,171,0.0,-999.0,77,-99.99,,,0.00,weatherlink.com 1.10,2013-08-10 12:47:00,
2013-08-10 06:02:00,50.8,43.0,29.81,SE,124,1.0,-999.0,74,-99.99,,,0.00,weatherlink.com 1.10,2013-08-10 13:02:00,
2013-08-10 06:17:00,51.1,42.0,29.83,SSE,151,2.0,-999.0,72,-99.99,,,0.00,weatherlink.com 1.10,2013-08-10 13:17:00,
2013-08-10 06:32:00,51.3,42.0,29.84,South,188,4.0,-999.0,71,-99.99,,,0.00,weatherlink.com 1.10,2013-08-10 13:32:00,
2013-08-10 06:46:00,51.4,42.0,29.84,SE,128,2.0,-999.0,71,-99.99,,,0.00,weatherlink.com 1.10,2013-08-10 13:46:00,
2013-08-10 07:04:00,51.9,42.0,29.83,SSE,154,0.0,-999.0,70,-99.99,,,0.00,weatherlink.com 1.10,2013-08-10 14:04:00,
2013-08-10 07:17:00,52.5,42.0,29.86,SSE,167,1.0,-999.0,68,-99.99,,,0.00,weatherlink.com 1.10,2013-08-10 14:17:00,
2013-08-10 07:32:00,54.1,41.0,29.86,SSE,168,0.0,-999.0,61,-99.99,,,0.00,weatherlink.com 1.10,2013-08-10 14:32:00,
2013-08-10 07:47:00,55.4,40.0,29.86,South,171,0.0,-999.0,56,-99.99,,,0.00,weatherlink.com 1.10,2013-08-10 14:47:00,
2013-08-10 08:02:00,56.6,39.0,29.85,SSW,196,0.0,-999.0,52,-99.99,,,0.00,weatherlink.com 1.10,2013-08-10 15:02:00,
2013-08-10 08:17:00,57.1,40.0,29.86,SSW,200,1.0,-999.0,53,-99.99,,,0.00,weatherlink.com 1.10,2013-08-10 15:17:00,
2013-08-10 08:34:00,57.9,40.0,29.85,SW,234,0.0,-999.0,51,-99.99,,,0.00,weatherlink.com 1.10,2013-08-10 15:34:00,
2013-08-10 08:50:00,58.7,40.0,29.86,South,174,3.0,-999.0,51,-99.99,,,0.00,weatherlink.com 1.10,2013-08-10 15:50:00,
2013-08-10 09:02:00,59.5,41.0,29.85,SSE,162,2.0,-999.0,51,-99.99,,,0.00,weatherlink.com 1.10,2013-08-10 16:02:00,
2013-08-10 09:17:00,59.8,41.0,29.85,SE,140,3.0,-999.0,51,-99.99,,,0.00,weatherlink.com 1.10,2013-08-10 16:17:00,
2013-08-10 09:32:00,60.5,40.0,29.84,SSE,154,3.0,-999.0,48,-99.99,,,0.00,weatherlink.com 1.10,2013-08-10 16:32:00,
2013-08-10 09:47:00,61.3,38.0,29.85,SE,138,1.0,-999.0,43,-99.99,,,0.00,weatherlink.com 1.10,2013-08-10 16:47:00,
2013-08-10 10:02:00,61.9,36.0,29.86,East,89,0.0,-999.0,38,-99.99,,,0.00,weatherlink.com 1.10,2013-08-10 17:02:00,
2013-08-10 10:17:00,62.7,35.0,29.86,ESE,116,1.0,-999.0,35,-99.99,,,0.00,weatherlink.com 1.10,2013-08-10 17:17:00,
2013-08-10 10:34:00,64.1,36.0,29.86,SW,222,0.0,-999.0,35,-99.99,,,0.00,weatherlink.com 1.10,2013-08-10 17:34:00,
2013-08-10 10:49:00,63.2,35.0,29.86,NE,47,0.0,-999.0,35,-99.99,,,0.00,weatherlink.com 1.10,2013-08-10 17:49:00,
2013-08-10 11:05:00,64.3,35.0,29.86,WNW,292,3.0,-999.0,34,-99.99,,,0.00,weatherlink.com 1.10,2013-08-10 18:05:00,
2013-08-10 11:20:00,64.0,35.0,29.87,WSW,248,1.0,-999.0,34,-99.99,,,0.00,weatherlink.com 1.10,2013-08-10 18:20:00,
2013-08-10 11:32:00,64.8,36.0,29.87,North,3,0.0,-999.0,34,-99.99,,,0.00,weatherlink.com 1.10,2013-08-10 18:32:00,
2013-08-10 11:47:00,65.1,34.0,29.88,ESE,109,0.0,-999.0,32,-99.99,,,0.00,weatherlink.com 1.10,2013-08-10 18:47:00,
2013-08-10 12:02:00,65.4,36.0,29.88,NE,44,0.0,-999.0,34,-99.99,,,0.00,weatherlink.com 1.10,2013-08-10 19:02:00,
2013-08-10 12:19:00,65.9,34.0,29.88,WNW,282,1.0,-999.0,31,-99.99,,,0.00,weatherlink.com 1.10,2013-08-10 19:19:00,
2013-08-10 12:32:00,66.2,37.0,29.87,West,268,4.0,-999.0,34,-99.99,,,0.00,weatherlink.com 1.10,2013-08-10 19:32:00,
2013-08-10 12:47:00,65.7,38.0,29.87,WSW,246,1.0,-999.0,36,-99.99,,,0.00,weatherlink.com 1.10,2013-08-10 19:47:00,
2013-08-10 13:05:00,66.5,40.0,29.86,SSW,209,0.0,-999.0,38,-99.99,,,0.00,weatherlink.com 1.10,2013-08-10 20:05:00,
2013-08-10 13:17:00,67.0,38.0,29.87,SSW,199,2.0,-999.0,35,-99.99,,,0.00,weatherlink.com 1.10,2013-08-10 20:17:00,
2013-08-10 13:32:00,66.9,40.0,29.87,SSW,195,1.0,-999.0,38,-99.99,,,0.00,weatherlink.com 1.10,2013-08-10 20:32:00,
2013-08-10 13:47:00,66.2,39.0,29.88,NW,315,11.0,-999.0,37,-99.99,,,0.00,weatherlink.com 1.10,2013-08-10 20:47:00,
2013-08-10 14:02:00,66.5,41.0,29.86,SSW,192,7.0,-999.0,39,-99.99,,,0.00,weatherlink.com 1.10,2013-08-10 21:02:00,
2013-08-10 14:16:00,66.2,39.0,29.86,SW,223,3.0,-999.0,37,-99.99,,,0.00,weatherlink.com 1.10,2013-08-10 21:16:00,
2013-08-10 14:31:00,69.0,39.0,29.88,SW,230,0.0,-999.0,34,-99.99,,,0.00,weatherlink.com 1.10,2013-08-10 21:31:00,
2013-08-10 14:47:00,66.7,39.0,29.87,NNW,335,0.0,-999.0,37,-99.99,,,0.00,weatherlink.com 1.10,2013-08-10 21:47:00,
2013-08-10 15:02:00,68.2,41.0,29.86,East,88,0.0,-999.0,38,-99.99,,,0.00,weatherlink.com 1.10,2013-08-10 22:02:00,
2013-08-10 15:17:00,69.0,40.0,29.86,WNW,302,0.0,-999.0,35,-99.99,,,0.00,weatherlink.com 1.10,2013-08-10 22:17:00,
2013-08-10 15:32:00,66.7,42.0,29.87,West,267,5.0,-999.0,40,-99.99,,,0.00,weatherlink.com 1.10,2013-08-10 22:32:00,
2013-08-10 15:47:00,68.7,40.0,29.86,SE,138,0.0,-999.0,35,-99.99,,,0.00,weatherlink.com 1.10,2013-08-10 22:47:00,
2013-08-10 16:02:00,68.2,41.0,29.86,SW,226,5.0,-999.0,37,-99.99,,,0.00,weatherlink.com 1.10,2013-08-10 23:02:00,
2013-08-10 16:17:00,67.7,40.0,29.87,WNW,289,0.0,-999.0,36,-99.99,,,0.00,weatherlink.com 1.10,2013-08-10 23:17:00,
2013-08-10 16:35:00,67.8,41.0,29.86,West,271,5.0,-999.0,38,-99.99,,,0.00,weatherlink.com 1.10,2013-08-10 23:35:00,
2013-08-10 16:50:00,67.7,42.0,29.87,NW,322,1.0,-999.0,40,-99.99,,,0.00,weatherlink.com 1.10,2013-08-10 23:50:00,
2013-08-10 17:02:00,66.7,43.0,29.88,NE,38,0.0,-999.0,42,-99.99,,,0.00,weatherlink.com 1.10,2013-08-11 00:02:00,
2013-08-10 17:16:00,66.1,42.0,29.88,NW,319,0.0,-999.0,42,-99.99,,,0.00,weatherlink.com 1.10,2013-08-11 00:16:00,
2013-08-10 17:31:00,65.2,41.0,29.88,WNW,298,2.0,-999.0,42,-99.99,,,0.00,weatherlink.com 1.10,2013-08-11 00:31:00,
2013-08-10 17:46:00,65.6,42.0,29.88,NNW,339,0.0,-999.0,43,-99.99,,,0.00,weatherlink.com 1.10,2013-08-11 00:46:00,
2013-08-10 18:01:00,64.8,42.0,29.88,SE,134,0.0,-999.0,44,-99.99,,,0.00,weatherlink.com 1.10,2013-08-11 01:01:00,
2013-08-10 18:19:00,64.4,41.0,29.88,SSE,150,2.0,-999.0,43,-99.99,,,0.00,weatherlink.com 1.10,2013-08-11 01:19:00,
2013-08-10 18:32:00,64.0,42.0,29.88,NNW,342,0.0,-999.0,45,-99.99,,,0.00,weatherlink.com 1.10,2013-08-11 01:32:00,
2013-08-10 18:47:00,63.0,42.0,29.87,East,92,3.0,-999.0,46,-99.99,,,0.00,weatherlink.com 1.10,2013-08-11 01:47:00,
2013-08-10 19:02:00,62.4,42.0,29.89,SE,124,0.0,-999.0,48,-99.99,,,0.00,weatherlink.com 1.10,2013-08-11 02:02:00,
2013-08-10 19:17:00,61.0,42.0,29.89,North,11,0.0,-999.0,50,-99.99,,,0.00,weatherlink.com 1.10,2013-08-11 02:17:00,
2013-08-10 19:35:00,60.1,43.0,29.88,West,277,0.0,-999.0,53,-99.99,,,0.00,weatherlink.com 1.10,2013-08-11 02:35:00,
2013-08-10 19:50:00,59.5,43.0,29.88,NW,319,2.0,-999.0,54,-99.99,,,0.00,weatherlink.com 1.10,2013-08-11 02:50:00,
2013-08-10 20:02:00,59.2,42.0,29.88,NW,313,0.0,-999.0,54,-99.99,,,0.00,weatherlink.com 1.10,2013-08-11 03:02:00,
2013-08-10 20:32:00,58.5,42.0,29.87,North,356,0.0,-999.0,55,-99.99,,,0.00,weatherlink.com 1.10,2013-08-11 03:32:00,
2013-08-10 21:02:00,58.4,42.0,29.89,East,83,0.0,-999.0,55,-99.99,,,0.00,weatherlink.com 1.10,2013-08-11 04:02:00,
2013-08-10 21:17:00,58.1,42.0,29.89,NW,316,0.0,-999.0,56,-99.99,,,0.00,weatherlink.com 1.10,2013-08-11 04:17:00,
2013-08-10 21:32:00,58.1,42.0,29.86,SSE,164,1.0,-999.0,56,-99.99,,,0.00,weatherlink.com 1.10,2013-08-11 04:32:00,
2013-08-10 21:47:00,57.8,42.0,29.87,NE,51,0.0,-999.0,56,-99.99,,,0.00,weatherlink.com 1.10,2013-08-11 04:47:00,
2013-08-10 22:03:00,57.1,42.0,29.88,SE,126,0.0,-999.0,58,-99.99,,,0.00,weatherlink.com 1.10,2013-08-11 05:03:00,
2013-08-10 22:17:00,57.1,43.0,29.88,ESE,114,0.0,-999.0,59,-99.99,,,0.00,weatherlink.com 1.10,2013-08-11 05:17:00,
2013-08-10 22:32:00,57.2,43.0,29.86,SW,233,0.0,-999.0,59,-99.99,,,0.00,weatherlink.com 1.10,2013-08-11 05:32:00,
2013-08-10 22:48:00,57.4,43.0,29.85,SSE,168,0.0,-999.0,59,-99.99,,,0.00,weatherlink.com 1.10,2013-08-11 05:48:00,
2013-08-10 23:17:00,57.1,42.0,29.86,SE,131,0.0,-999.0,58,-99.99,,,0.00,weatherlink.com 1.10,2013-08-11 06:17:00,
2013-08-10 23:32:00,56.0,42.0,29.84,SE,133,2.0,-999.0,60,-99.99,,,0.00,weatherlink.com 1.10,2013-08-11 06:32:00,
2013-08-10 23:48:00,56.2,42.0,29.84,SSE,148,0.0,-999.0,59,-99.99,,,0.00,weatherlink.com 1.10,2013-08-11 06:48:00,